Time;durP1;ratioP1;P1;durP2;ratioP2;P2;SDS_P1;SDS_P2;PMS_P1;PMS_P2;Temp;Humidity;BMP_temperature;BMP_pressure;BME280_temperature;BME280_humidity;BME280_pressure;Samples;Min_cycle;Max_cycle;Signal;HPM_P1;HPM_P2
2023/03/16 00:04:57;;;;;;;;;7.25;6.25;;;;;11.33;59.01;100893.00;5053287;28;45853;-74
2023/03/16 00:07:23;;;;;;;;;6.00;5.00;;;;;11.31;59.46;100880.94;5053453;28;45654;-73
2023/03/16 00:09:48;;;;;;;;;6.50;6.50;;;;;11.29;59.09;100873.16;5053062;28;46551;-73
2023/03/16 00:12:16;;;;;;;;;5.25;4.50;;;;;11.28;59.31;100873.28;5053295;28;46145;-74
2023/03/16 00:21:08;;;;;;;;;5.50;4.50;;;;;11.15;59.30;100861.97;5053094;28;46050;-73
2023/03/16 00:23:34;;;;;;;;;7.00;5.50;;;;;11.13;59.82;100869.94;5053653;28;45655;-73
2023/03/16 00:26:05;;;;;;;;;6.25;6.25;;;;;11.14;59.95;100862.91;5057053;28;45592;-73
2023/03/16 00:28:34;;;;;;;;;5.00;5.00;;;;;11.12;59.56;100864.81;5057128;28;45728;-73
2023/03/16 00:31:01;;;;;;;;;4.50;4.00;;;;;11.05;59.06;100848.66;5056499;28;46505;-74
2023/03/16 00:33:27;;;;;;;;;5.00;3.25;;;;;11.01;58.99;100852.44;5038425;28;46396;-73
2023/03/16 00:36:00;;;;;;;;;6.00;4.00;;;;;10.99;59.24;100862.19;5056331;28;45539;-73
2023/03/16 00:38:28;;;;;;;;;7.00;6.25;;;;;10.98;59.70;100862.28;5057010;28;45555;-73
2023/03/16 00:40:53;;;;;;;;;7.00;6.25;;;;;10.97;59.91;100873.72;5056226;28;46631;-73
2023/03/16 00:43:18;;;;;;;;;6.25;4.50;;;;;10.93;59.91;100849.50;5056672;28;45643;-73
2023/03/16 00:45:44;;;;;;;;;6.25;4.00;;;;;10.96;59.34;100853.72;5056512;28;45688;-73
2023/03/16 00:48:10;;;;;;;;;6.00;4.50;;;;;10.90;60.02;100853.16;5056414;28;46046;-73
2023/03/16 00:50:37;;;;;;;;;7.75;5.50;;;;;10.97;59.89;100839.63;5056687;28;46426;-73
2023/03/16 00:53:02;;;;;;;;;8.00;7.25;;;;;10.97;59.78;100837.00;5039176;28;46200;-75
2023/03/16 00:55:27;;;;;;;;;6.00;4.00;;;;;10.93;60.08;100818.88;5056735;28;45754;-74
2023/03/16 00:57:53;;;;;;;;;8.00;7.00;;;;;10.84;59.88;100803.81;5039039;28;45875;-74
2023/03/16 01:00:20;;;;;;;;;7.00;6.00;;;;;10.94;59.67;100832.84;5056061;28;47398;-74
2023/03/16 01:02:45;;;;;;;;;7.50;6.50;;;;;10.94;59.84;100852.03;5056456;28;46173;-74
2023/03/16 01:05:12;;;;;;;;;6.75;6.00;;;;;10.94;59.88;100857.25;5056217;28;45599;-73
2023/03/16 01:07:39;;;;;;;;;7.50;7.00;;;;;10.93;60.13;100850.34;5056457;28;45802;-73
2023/03/16 01:10:06;;;;;;;;;5.00;3.75;;;;;10.94;59.84;100840.69;5055894;28;47784;-72
2023/03/16 01:12:32;;;;;;;;;7.00;6.25;;;;;10.90;60.34;100853.16;5038058;28;48573;-72
2023/03/16 01:14:58;;;;;;;;;4.50;3.50;;;;;10.91;60.25;100860.06;5056043;28;45875;-72
2023/03/16 01:20:49;;;;;;;;;6.25;6.25;;;;;10.91;60.39;100844.34;5055813;28;45586;-73
2023/03/16 01:23:16;;;;;;;;;8.50;7.75;;;;;10.91;60.05;100812.91;5056016;28;46498;-74
2023/03/16 01:25:42;;;;;;;;;6.25;6.25;;;;;10.87;60.50;100797.50;5055968;28;45718;-73
2023/03/16 01:28:08;;;;;;;;;6.00;4.00;;;;;10.86;60.38;100803.69;5055744;28;45716;-72
2023/03/16 01:30:34;;;;;;;;;10.50;8.00;;;;;10.70;60.28;100782.09;5055807;28;46399;-73
2023/03/16 01:36:21;;;;;;;;;7.00;6.00;;;;;10.73;60.68;100803.69;5054681;28;45760;-74
2023/03/16 01:38:46;;;;;;;;;6.25;5.25;;;;;10.67;60.55;100785.78;5056061;28;45637;-73
2023/03/16 01:41:13;;;;;;;;;6.00;4.50;;;;;10.72;60.75;100793.31;5055444;28;46476;-72
2023/03/16 01:43:39;;;;;;;;;11.25;7.50;;;;;10.69;60.79;100794.34;5055468;28;47346;-73
2023/03/16 01:46:04;;;;;;;;;5.50;5.50;;;;;10.70;61.00;100787.34;5055359;28;45638;-73
2023/03/16 01:48:41;;;;;;;;;8.00;6.00;;;;;10.67;60.86;100791.00;5038191;28;45940;-73
2023/03/16 01:51:16;;;;;;;;;7.00;7.00;;;;;10.69;61.09;100791.72;5055220;28;46541;-73
2023/03/16 01:53:45;;;;;;;;;6.00;6.00;;;;;10.68;61.18;100797.09;5055711;28;46299;-72
2023/03/16 01:56:14;;;;;;;;;8.00;6.75;;;;;10.68;60.99;100799.72;5055439;28;45881;-74
2023/03/16 01:58:42;;;;;;;;;7.50;7.50;;;;;10.64;60.89;100778.09;5055736;28;45591;-73
2023/03/16 02:01:09;;;;;;;;;6.00;4.25;;;;;10.63;60.83;100773.00;5055387;28;46589;-72
2023/03/16 02:03:35;;;;;;;;;6.00;6.00;;;;;10.64;60.98;100772.03;5055121;28;46689;-72
2023/03/16 02:06:14;;;;;;;;;6.50;6.50;;;;;10.63;61.09;100760.75;5055594;28;45555;-73
2023/03/16 02:08:42;;;;;;;;;7.50;6.75;;;;;10.59;61.12;100756.63;5056509;28;45747;-73
2023/03/16 02:11:08;;;;;;;;;7.00;6.00;;;;;10.55;60.36;100751.72;5055641;28;47924;-74
2023/03/16 02:13:37;;;;;;;;;8.00;7.50;;;;;10.54;60.90;100753.50;5055449;28;47279;-74
2023/03/16 02:16:07;;;;;;;;;7.50;6.00;;;;;10.52;61.27;100755.41;5053802;28;45848;-73
2023/03/16 02:22:02;;;;;;;;;7.00;7.00;;;;;10.47;60.94;100757.50;5055827;28;46007;-73
2023/03/16 02:24:29;;;;;;;;;8.50;7.75;;;;;10.45;60.57;100756.75;5055225;28;46406;-74
2023/03/16 02:26:58;;;;;;;;;7.00;6.25;;;;;10.35;60.95;100746.06;5055644;28;45748;-72
2023/03/16 02:29:45;;;;;;;;;3.25;2.50;;;;;10.40;60.83;100759.69;5055311;28;45563;-73
2023/03/16 02:32:13;;;;;;;;;8.75;7.75;;;;;10.38;60.94;100748.47;5056004;28;45517;-72
2023/03/16 02:34:38;;;;;;;;;4.00;4.00;;;;;10.38;61.04;100751.06;5055398;28;45550;-72
2023/03/16 02:37:05;;;;;;;;;10.75;8.00;;;;;10.32;60.80;100742.78;5055273;28;45716;-73
2023/03/16 02:39:31;;;;;;;;;6.50;6.50;;;;;10.30;60.37;100740.31;5055197;28;45668;-73
2023/03/16 02:41:56;;;;;;;;;7.50;7.00;;;;;10.35;60.65;100750.47;5055108;28;45622;-73
2023/03/16 02:44:35;;;;;;;;;6.25;5.75;;;;;10.28;60.41;100741.34;5052912;28;48155;-75
2023/03/16 02:47:09;;;;;;;;;6.50;5.75;;;;;10.27;60.78;100730.03;5054972;28;45575;-72
2023/03/16 02:49:42;;;;;;;;;7.00;6.25;;;;;10.26;60.53;100730.94;5054619;28;45575;-74
2023/03/16 02:52:08;;;;;;;;;6.50;6.00;;;;;10.25;60.20;100725.84;5054813;28;45624;-73
2023/03/16 02:54:34;;;;;;;;;8.75;7.00;;;;;10.19;60.11;100718.41;5054036;28;46050;-72
2023/03/16 02:57:00;;;;;;;;;5.00;5.00;;;;;10.15;60.24;100722.16;5054584;28;45959;-73
2023/03/16 02:59:25;;;;;;;;;7.00;7.00;;;;;10.09;60.11;100708.50;5054739;28;45595;-73
2023/03/16 03:01:50;;;;;;;;;6.00;5.25;;;;;10.08;60.24;100712.09;5054523;28;46407;-74
2023/03/16 03:04:16;;;;;;;;;5.75;5.50;;;;;10.02;60.37;100688.09;5054180;28;46047;-72
2023/03/16 03:06:42;;;;;;;;;2.00;1.75;;;;;10.04;60.49;100702.72;5053946;28;45635;-73
2023/03/16 03:09:10;;;;;;;;;5.75;5.75;;;;;9.85;60.73;100675.28;5054148;28;45528;-73
2023/03/16 03:11:36;;;;;;;;;7.00;6.00;;;;;10.02;60.50;100707.25;5054358;28;46326;-73
2023/03/16 03:14:02;;;;;;;;;7.00;6.75;;;;;9.99;60.40;100691.75;5054039;28;46184;-72
2023/03/16 03:16:28;;;;;;;;;6.00;3.50;;;;;9.99;60.52;100702.22;5054245;28;45575;-73
2023/03/16 03:22:17;;;;;;;;;6.25;6.25;;;;;9.96;60.39;100697.19;5053973;28;45673;-73
2023/03/16 03:24:42;;;;;;;;;6.00;6.00;;;;;9.95;60.08;100694.66;5054005;28;46245;-73
2023/03/16 03:27:08;;;;;;;;;5.50;5.00;;;;;9.93;60.37;100701.81;5053986;28;45555;-73
2023/03/16 03:29:33;;;;;;;;;6.00;6.00;;;;;9.86;60.37;100701.38;5054237;28;45630;-73
2023/03/16 03:32:03;;;;;;;;;5.25;5.00;;;;;9.90;60.47;100699.38;5054324;28;45780;-73
2023/03/16 03:37:50;;;;;;;;;4.50;4.50;;;;;9.94;60.10;100699.06;5053662;28;45516;-71
2023/03/16 03:40:18;;;;;;;;;7.25;6.00;;;;;9.95;59.90;100699.91;5054243;28;45673;-73
2023/03/16 03:42:44;;;;;;;;;6.00;5.50;;;;;9.91;59.69;100685.34;5053872;28;46598;-74
2023/03/16 03:45:11;;;;;;;;;5.25;5.00;;;;;9.92;59.85;100685.25;5053532;28;45721;-73
2023/03/16 03:47:37;;;;;;;;;6.00;5.00;;;;;9.93;59.90;100688.72;5053361;28;45832;-73
2023/03/16 03:50:03;;;;;;;;;5.50;5.00;;;;;9.91;59.95;100694.06;5053630;28;45718;-73
2023/03/16 03:52:28;;;;;;;;;5.00;5.00;;;;;9.90;59.77;100684.50;5053878;28;45620;-73
2023/03/16 03:54:53;;;;;;;;;3.50;3.00;;;;;9.87;60.25;100679.50;5053424;28;46079;-73
2023/03/16 03:57:19;;;;;;;;;6.00;5.00;;;;;9.84;59.95;100684.91;5053534;28;45821;-72
2023/03/16 03:59:44;;;;;;;;;3.00;3.00;;;;;9.80;59.80;100673.00;5053258;28;45752;-73
2023/03/16 04:02:10;;;;;;;;;5.25;5.00;;;;;9.86;60.07;100687.44;5053846;28;45537;-73
2023/03/16 04:07:57;;;;;;;;;5.00;5.00;;;;;9.73;60.45;100649.94;5053428;28;45819;-72
2023/03/16 04:10:24;;;;;;;;;4.25;3.00;;;;;9.83;59.87;100667.53;5053457;28;45848;-74
2023/03/16 04:12:50;;;;;;;;;5.00;5.00;;;;;9.82;59.60;100665.88;5054727;28;46456;-73
2023/03/16 04:15:15;;;;;;;;;3.50;3.00;;;;;9.81;59.60;100671.22;5069268;28;46219;-72
2023/03/16 04:17:41;;;;;;;;;5.00;4.75;;;;;9.78;59.28;100659.16;5054046;28;45583;-73
2023/03/16 04:20:14;;;;;;;;;3.75;3.00;;;;;9.78;59.87;100656.53;5053423;28;45553;-74
2023/03/16 04:22:41;;;;;;;;;5.00;3.00;;;;;9.77;59.81;100649.63;5053711;28;46461;-72
2023/03/16 04:25:09;;;;;;;;;4.00;3.00;;;;;9.72;59.70;100640.44;5052846;28;46134;-72
2023/03/16 04:27:35;;;;;;;;;5.00;3.50;;;;;9.75;59.12;100651.53;5053097;28;45584;-73
2023/03/16 04:30:05;;;;;;;;;5.75;3.00;;;;;9.72;59.31;100636.03;5053829;28;45758;-74
2023/03/16 04:32:33;;;;;;;;;3.00;3.00;;;;;9.73;59.71;100637.69;5052301;28;47570;-74
2023/03/16 04:38:21;;;;;;;;;2.25;2.00;;;;;9.70;59.57;100627.47;5053547;28;45527;-73
2023/03/16 04:40:46;;;;;;;;;3.00;2.25;;;;;9.66;59.63;100628.63;5054220;28;45821;-73
2023/03/16 04:43:12;;;;;;;;;1.75;1.25;;;;;9.61;59.41;100631.50;5035533;28;48495;-72
2023/03/16 04:45:37;;;;;;;;;2.25;2.00;;;;;9.66;59.09;100626.00;5053314;28;47508;-73
2023/03/16 04:54:27;;;;;;;;;4.00;2.50;;;;;9.54;59.12;100606.72;5053272;28;45812;-73
2023/03/16 04:56:53;;;;;;;;;2.75;2.00;;;;;9.60;59.00;100621.19;5052823;28;46788;-73
2023/03/16 04:59:18;;;;;;;;;3.00;3.00;;;;;9.58;58.87;100623.88;5052948;28;45606;-73
2023/03/16 05:01:43;;;;;;;;;2.00;2.00;;;;;9.56;59.42;100630.97;5052898;28;45695;-73
2023/03/16 05:04:09;;;;;;;;;3.25;2.25;;;;;9.54;59.08;100622.41;5052745;28;45619;-74
2023/03/16 05:06:34;;;;;;;;;2.00;2.00;;;;;9.52;59.09;100623.44;5052539;28;45950;-73
2023/03/16 05:08:59;;;;;;;;;3.00;3.00;;;;;9.48;59.06;100616.75;5052730;28;45614;-73
2023/03/16 05:11:25;;;;;;;;;5.00;2.50;;;;;9.48;59.33;100616.75;5054187;28;45518;-74
2023/03/16 05:13:51;;;;;;;;;2.25;2.00;;;;;9.42;59.61;100604.09;5055761;28;47989;-73
2023/03/16 05:16:16;;;;;;;;;4.50;3.00;;;;;9.47;59.24;100612.47;5056155;28;45904;-73
2023/03/16 05:22:03;;;;;;;;;3.00;3.00;;;;;9.37;59.04;100596.53;5056120;28;45557;-73
2023/03/16 05:24:28;;;;;;;;;3.00;3.00;;;;;9.37;59.48;100607.00;5071225;28;48626;-73
2023/03/16 05:26:53;;;;;;;;;2.25;2.25;;;;;9.32;59.78;100600.41;5055961;28;45895;-72
2023/03/16 05:29:19;;;;;;;;;4.75;2.00;;;;;9.33;59.24;100596.84;5055742;28;45667;-74
2023/03/16 05:31:46;;;;;;;;;4.50;3.00;;;;;9.32;59.68;100603.03;5037867;28;45527;-75
2023/03/16 05:37:36;;;;;;;;;2.75;2.75;;;;;9.34;59.48;100609.81;5055562;28;45643;-74
2023/03/16 05:40:13;;;;;;;;;3.00;2.50;;;;;9.26;59.80;100597.25;5055622;28;45925;-74
2023/03/16 05:42:38;;;;;;;;;2.25;2.00;;;;;9.30;59.47;100605.72;5056407;28;45511;-74
2023/03/16 05:45:05;;;;;;;;;5.00;4.00;;;;;9.35;59.97;100613.25;5055709;28;46569;-72
2023/03/16 05:47:31;;;;;;;;;2.25;1.50;;;;;9.25;59.69;100598.19;5055354;28;46274;-74
2023/03/16 05:53:19;;;;;;;;;2.50;2.00;;;;;9.32;59.10;100606.47;5055513;28;45615;-74
2023/03/16 05:55:44;;;;;;;;;2.75;1.75;;;;;9.37;59.29;100608.78;5055419;28;46279;-74
2023/03/16 05:58:10;;;;;;;;;1.00;0.25;;;;;9.35;59.55;100611.47;5055255;28;46202;-74
2023/03/16 06:00:38;;;;;;;;;1.75;1.75;;;;;9.34;59.46;100607.19;5055164;28;45625;-74
2023/03/16 06:03:04;;;;;;;;;5.25;2.50;;;;;9.35;59.42;100606.25;5055257;28;45841;-74
2023/03/16 06:08:51;;;;;;;;;2.50;2.00;;;;;9.32;59.29;100598.63;5054864;28;46189;-75
2023/03/16 06:11:16;;;;;;;;;3.50;3.00;;;;;9.29;59.28;100598.81;5054460;28;45679;-75
2023/03/16 06:13:42;;;;;;;;;2.00;2.00;;;;;9.28;59.75;100608.44;5055204;28;45683;-75
2023/03/16 06:16:10;;;;;;;;;2.00;1.75;;;;;9.28;60.19;100603.19;5054607;28;45650;-74
2023/03/16 06:18:35;;;;;;;;;4.00;2.00;;;;;9.26;59.60;100604.25;5054077;28;46690;-76
2023/03/16 06:24:22;;;;;;;;;5.75;3.00;;;;;9.27;59.68;100601.56;5054803;28;45679;-75
2023/03/16 06:26:47;;;;;;;;;5.00;3.00;;;;;9.33;59.00;100610.78;5054920;28;46323;-75
2023/03/16 06:29:12;;;;;;;;;4.00;3.00;;;;;9.35;59.13;100611.47;5055226;28;46309;-74
2023/03/16 06:31:38;;;;;;;;;3.00;2.00;;;;;9.37;59.33;100603.56;5054900;28;45599;-74
2023/03/16 06:34:03;;;;;;;;;2.00;1.00;;;;;9.30;59.07;100587.41;5054230;28;45581;-75
2023/03/16 06:39:50;;;;;;;;;2.00;1.50;;;;;9.42;58.85;100604.91;5055226;28;45615;-74
2023/03/16 06:42:16;;;;;;;;;2.00;1.50;;;;;9.45;58.63;100607.31;5054418;28;45594;-74
2023/03/16 06:44:41;;;;;;;;;1.00;1.00;;;;;9.46;58.45;100608.16;5054739;28;45587;-73
2023/03/16 06:47:07;;;;;;;;;5.00;3.00;;;;;9.45;58.77;100602.09;5053226;28;46249;-75
2023/03/16 06:49:32;;;;;;;;;7.25;6.25;;;;;9.47;58.35;100610.69;5053328;28;45858;-73
2023/03/16 06:55:19;;;;;;;;;1.00;1.00;;;;;9.50;57.89;100597.38;5055050;28;45639;-75
2023/03/16 06:57:45;;;;;;;;;2.00;2.00;;;;;9.56;57.58;100596.13;5054326;28;45982;-75
2023/03/16 07:00:14;;;;;;;;;1.00;1.00;;;;;9.52;58.03;100587.66;5054540;28;45591;-75
2023/03/16 07:02:39;;;;;;;;;1.00;1.00;;;;;9.60;58.05;100589.78;5054819;28;45946;-74
2023/03/16 07:05:06;;;;;;;;;1.50;1.50;;;;;9.60;57.88;100579.31;5036156;28;45575;-74
2023/03/16 07:07:33;;;;;;;;;9.50;7.00;;;;;9.62;57.70;100580.88;5054106;28;48289;-74
2023/03/16 07:09:59;;;;;;;;;12.50;11.00;;;;;9.63;57.99;100579.94;5054414;28;46020;-75
2023/03/16 07:12:24;;;;;;;;;2.00;2.00;;;;;9.64;57.59;100586.84;5054582;28;45813;-73
2023/03/16 07:14:50;;;;;;;;;2.00;2.00;;;;;9.62;57.28;100577.44;5054453;28;45845;-73
2023/03/16 07:17:15;;;;;;;;;3.00;2.00;;;;;9.66;57.13;100586.75;5053468;28;46637;-75
2023/03/16 07:19:42;;;;;;;;;2.00;2.00;;;;;9.67;57.63;100581.41;5054011;28;47282;-74
2023/03/16 07:25:30;;;;;;;;;2.00;1.00;;;;;9.67;57.14;100577.94;5053732;28;45738;-75
2023/03/16 07:27:55;;;;;;;;;2.00;2.00;;;;;9.69;57.28;100573.47;5053676;28;47554;-73
2023/03/16 07:30:21;;;;;;;;;4.00;2.25;;;;;9.72;57.18;100575.84;5053823;28;46551;-74
2023/03/16 07:32:46;;;;;;;;;1.75;1.50;;;;;9.72;56.81;100578.47;5054229;28;45779;-73
2023/03/16 07:35:11;;;;;;;;;2.00;2.00;;;;;9.74;56.67;100571.38;5053065;28;45592;-74
2023/03/16 07:40:59;;;;;;;;;1.00;1.00;;;;;9.76;56.95;100560.81;5053843;28;45553;-73
2023/03/16 07:43:24;;;;;;;;;3.00;1.75;;;;;9.76;56.90;100563.44;5053757;28;45740;-73
2023/03/16 07:45:51;;;;;;;;;2.00;2.00;;;;;9.80;56.77;100555.25;5053809;28;45603;-74
2023/03/16 07:48:17;;;;;;;;;1.50;1.50;;;;;9.85;57.02;100560.16;5054049;28;46660;-74
2023/03/16 07:50:48;;;;;;;;;2.00;2.00;;;;;9.80;56.34;100551.81;5054111;28;46046;-73
2023/03/16 07:53:14;;;;;;;;;2.00;2.00;;;;;9.92;56.71;100562.28;5053649;28;45634;-74
2023/03/16 07:55:41;;;;;;;;;1.00;1.00;;;;;9.96;56.86;100575.97;5053959;28;45882;-74
2023/03/16 07:58:06;;;;;;;;;2.00;2.00;;;;;9.98;56.60;100569.69;5053444;28;46660;-74
2023/03/16 08:00:32;;;;;;;;;1.75;1.75;;;;;10.01;56.34;100566.84;5053387;28;46134;-75
2023/03/16 08:02:58;;;;;;;;;2.00;2.00;;;;;10.07;56.18;100570.81;5053355;28;45659;-75
2023/03/16 08:05:25;;;;;;;;;1.75;1.75;;;;;10.11;56.64;100570.50;5052023;28;45843;-75
2023/03/16 08:11:12;;;;;;;;;2.50;1.00;;;;;10.19;56.39;100571.78;5053084;28;45680;-74
2023/03/16 08:13:37;;;;;;;;;1.75;1.50;;;;;10.23;56.47;100575.84;5053622;28;45759;-74
2023/03/16 08:16:04;;;;;;;;;2.25;2.00;;;;;10.22;56.39;100566.31;5053904;28;45674;-74
2023/03/16 08:18:30;;;;;;;;;2.50;2.25;;;;;10.28;56.41;100565.91;5053662;28;45535;-73
2023/03/16 08:20:56;;;;;;;;;1.00;1.00;;;;;10.31;56.00;100573.56;5053198;28;45661;-73
2023/03/16 08:23:23;;;;;;;;;3.00;2.00;;;;;10.30;56.29;100577.13;5053169;28;45599;-74
2023/03/16 08:25:54;;;;;;;;;1.00;1.00;;;;;10.32;56.30;100580.44;5053294;28;45531;-74
2023/03/16 08:28:24;;;;;;;;;2.00;2.00;;;;;10.30;56.13;100564.03;5053455;28;46692;-73
2023/03/16 08:30:52;;;;;;;;;1.75;1.75;;;;;10.40;56.31;100575.50;5053181;28;46285;-73
2023/03/16 08:33:19;;;;;;;;;1.75;1.00;;;;;10.42;56.00;100573.59;5053532;28;45778;-74
2023/03/16 08:35:45;;;;;;;;;2.25;2.00;;;;;10.46;56.31;100573.31;5035677;28;45987;-74
2023/03/16 08:41:33;;;;;;;;;2.00;2.00;;;;;10.58;56.03;100570.75;5052912;28;45676;-74
2023/03/16 08:43:58;;;;;;;;;2.00;1.00;;;;;10.62;55.85;100573.03;5053113;28;45715;-74
2023/03/16 08:46:24;;;;;;;;;3.00;2.00;;;;;10.65;55.44;100569.34;5038077;28;45725;-74
2023/03/16 08:48:51;;;;;;;;;1.00;1.00;;;;;10.69;55.77;100562.97;5056358;28;47334;-74
2023/03/16 08:51:18;;;;;;;;;2.00;2.00;;;;;10.72;56.19;100565.34;5056358;28;47109;-74
2023/03/16 08:53:44;;;;;;;;;1.75;1.75;;;;;10.75;55.91;100555.47;5056101;28;45770;-74
2023/03/16 08:56:13;;;;;;;;;2.00;1.75;;;;;10.77;55.82;100564.06;5056412;28;45598;-74
2023/03/16 08:58:40;;;;;;;;;3.00;2.00;;;;;10.80;55.79;100555.13;5056237;28;47413;-73
2023/03/16 09:01:07;;;;;;;;;4.50;3.00;;;;;10.84;55.62;100562.69;5056137;28;46354;-73
2023/03/16 09:03:34;;;;;;;;;3.00;3.00;;;;;10.86;55.66;100563.38;5056361;28;45523;-75
2023/03/16 09:06:05;;;;;;;;;2.50;1.75;;;;;10.93;55.59;100574.28;5056549;28;45829;-74
2023/03/16 09:11:52;;;;;;;;;3.00;1.50;;;;;11.04;55.45;100563.84;5056124;28;45661;-74
2023/03/16 09:14:18;;;;;;;;;4.00;2.00;;;;;11.08;55.69;100553.94;5056349;28;46141;-74
2023/03/16 09:16:44;;;;;;;;;3.00;2.00;;;;;11.15;55.01;100557.81;5055982;28;45563;-75
2023/03/16 09:19:10;;;;;;;;;2.75;2.00;;;;;11.17;54.82;100551.50;5056247;28;45554;-74
2023/03/16 09:21:36;;;;;;;;;2.00;2.00;;;;;11.27;54.76;100555.09;5055795;28;46275;-74
2023/03/16 09:24:01;;;;;;;;;3.00;2.00;;;;;11.34;54.62;100556.31;5055527;28;45652;-74
2023/03/16 09:26:27;;;;;;;;;1.50;1.50;;;;;11.42;55.07;100554.91;5055935;28;45774;-74
2023/03/16 09:28:53;;;;;;;;;3.00;2.00;;;;;11.43;54.37;100539.06;5055553;28;46432;-74
2023/03/16 09:31:19;;;;;;;;;2.00;2.00;;;;;11.58;54.90;100545.75;5055691;28;46081;-74
2023/03/16 09:33:45;;;;;;;;;3.75;2.00;;;;;11.67;54.83;100538.94;5055746;28;45712;-74
2023/03/16 09:36:12;;;;;;;;;2.00;1.75;;;;;11.70;54.48;100536.94;5056167;28;45823;-73
2023/03/16 09:42:28;;;;;;;;;3.00;2.50;;;;;11.90;54.83;100531.97;5055799;28;45996;-74
2023/03/16 09:45:30;;;;;;;;;2.25;1.50;;;;;11.98;54.35;100540.09;4973932;28;45648;-74
2023/03/16 09:48:02;;;;;;;;;2.00;2.00;;;;;12.03;54.58;100536.16;4973880;28;45664;-74
2023/03/16 09:50:33;;;;;;;;;1.00;1.00;;;;;11.91;53.98;100499.50;4993409;28;47627;-72
2023/03/16 09:53:17;;;;;;;;;1.75;1.75;;;;;12.09;53.90;100512.00;4993480;28;47093;-73
2023/03/16 09:55:50;;;;;;;;;2.00;2.00;;;;;12.11;53.58;100520.63;4993693;28;45745;-73
2023/03/16 09:58:18;;;;;;;;;4.25;4.25;;;;;12.32;53.58;100530.38;4992758;28;45604;-73
2023/03/16 10:01:10;;;;;;;;;2.00;2.00;;;;;12.39;53.56;100526.31;4993295;28;48570;-74
2023/03/16 10:04:08;;;;;;;;;2.00;2.00;;;;;12.44;53.83;100525.00;4986425;28;46137;-74
2023/03/16 10:09:49;;;;;;;;;2.00;2.00;;;;;12.54;53.15;100523.28;4994704;28;45845;-73
2023/03/16 10:12:16;;;;;;;;;2.25;2.25;;;;;12.59;53.65;100520.28;4994293;28;45623;-73
2023/03/16 10:14:56;;;;;;;;;1.00;1.00;;;;;12.63;53.00;100521.72;4993117;28;46245;-75
2023/03/16 10:17:36;;;;;;;;;4.00;2.00;;;;;12.68;53.45;100522.19;4992802;28;45713;-75
2023/03/16 10:20:10;;;;;;;;;1.75;1.75;;;;;12.73;52.47;100521.81;4976749;28;45920;-74
2023/03/16 10:25:57;;;;;;;;;2.50;2.50;;;;;12.87;52.93;100521.50;5075120;28;45499;-74
2023/03/16 10:28:27;;;;;;;;;3.00;3.00;;;;;12.92;52.90;100524.59;5075211;28;45693;-73
2023/03/16 10:30:59;;;;;;;;;3.25;2.00;;;;;12.96;52.86;100511.06;5075083;28;45854;-73
2023/03/16 10:33:25;;;;;;;;;2.50;2.00;;;;;13.08;53.01;100506.59;5075138;28;45639;-74
2023/03/16 10:36:29;;;;;;;;;2.00;1.00;;;;;13.17;52.65;100511.09;5074930;28;46933;-73
2023/03/16 10:42:19;;;;;;;;;2.00;2.00;;;;;13.33;52.50;100498.31;5012561;28;45731;-73
2023/03/16 10:44:45;;;;;;;;;1.75;1.75;;;;;13.38;52.63;100504.06;5012422;28;45656;-74
2023/03/16 10:47:34;;;;;;;;;2.75;2.00;;;;;13.43;52.53;100499.25;5012676;28;46169;-74
2023/03/16 10:50:13;;;;;;;;;2.50;2.25;;;;;13.49;52.55;100500.53;4972958;28;45912;-74
2023/03/16 10:52:43;;;;;;;;;1.50;1.50;;;;;13.53;52.14;100499.28;4973170;28;45843;-73
2023/03/16 10:55:15;;;;;;;;;2.00;2.00;;;;;13.56;51.77;100483.22;4972730;28;47399;-74
2023/03/16 10:57:42;;;;;;;;;3.50;2.00;;;;;13.65;51.80;100487.72;4972687;28;47000;-74
2023/03/16 11:00:19;;;;;;;;;1.25;1.25;;;;;13.61;51.42;100459.13;4973157;28;45712;-74
2023/03/16 11:02:45;;;;;;;;;3.00;2.00;;;;;13.72;51.25;100470.41;4972968;28;45529;-74
2023/03/16 11:05:12;;;;;;;;;2.75;2.00;;;;;13.76;51.59;100471.84;4972520;28;46458;-74
2023/03/16 11:07:38;;;;;;;;;2.00;1.50;;;;;13.79;51.67;100470.72;4972585;28;46050;-75
2023/03/16 11:10:24;;;;;;;;;4.75;2.50;;;;;13.81;51.47;100471.44;4972826;28;45762;-73
2023/03/16 11:12:50;;;;;;;;;3.75;2.25;;;;;13.83;51.97;100461.59;4971070;28;45641;-74
2023/03/16 11:15:16;;;;;;;;;2.75;2.00;;;;;13.89;51.20;100466.31;5005526;28;47856;-73
2023/03/16 11:17:48;;;;;;;;;2.00;2.00;;;;;13.94;51.76;100455.38;5011925;28;47516;-75
2023/03/16 11:20:22;;;;;;;;;5.25;3.00;;;;;13.99;51.94;100451.38;5012316;28;45739;-75
2023/03/16 11:22:48;;;;;;;;;3.00;2.75;;;;;14.05;51.29;100442.09;5011933;28;45875;-75
2023/03/16 11:25:20;;;;;;;;;2.00;1.25;;;;;14.07;51.00;100437.53;5011707;28;46434;-74
2023/03/16 11:28:02;;;;;;;;;3.00;3.00;;;;;14.11;50.83;100431.03;5046191;28;47091;-73
2023/03/16 11:30:48;;;;;;;;;3.25;3.25;;;;;14.19;50.70;100425.94;5053681;28;45550;-74
2023/03/16 11:33:17;;;;;;;;;2.75;2.00;;;;;14.25;50.99;100420.09;5054054;28;45688;-74
2023/03/16 11:36:07;;;;;;;;;2.75;2.00;;;;;14.33;50.60;100422.03;5053608;28;47207;-73
2023/03/16 11:38:49;;;;;;;;;4.00;2.25;;;;;14.38;49.99;100423.31;5053409;28;46284;-74
2023/03/16 11:41:29;;;;;;;;;2.25;2.25;;;;;14.43;50.16;100415.00;5053754;28;45721;-74
2023/03/16 11:44:18;;;;;;;;;2.50;1.75;;;;;14.46;50.55;100420.84;5053732;28;45505;-74
2023/03/16 11:47:16;;;;;;;;;4.00;3.00;;;;;14.56;50.44;100413.78;5053630;28;45496;-73
2023/03/16 11:49:58;;;;;;;;;2.00;2.00;;;;;14.63;50.63;100416.66;5066048;28;48390;-74
2023/03/16 11:55:48;;;;;;;;;3.00;2.00;;;;;14.70;50.11;100396.69;5073861;28;45545;-74
2023/03/16 11:58:35;;;;;;;;;3.00;2.75;;;;;14.71;49.37;100403.63;5073694;28;46510;-74
2023/03/16 12:01:15;;;;;;;;;2.00;2.00;;;;;14.77;49.68;100395.16;5074287;28;46558;-74
2023/03/16 12:03:53;;;;;;;;;2.00;2.00;;;;;14.84;49.35;100395.41;5074155;28;45936;-73
2023/03/16 12:06:27;;;;;;;;;2.00;2.00;;;;;14.90;49.62;100393.03;5055404;28;45978;-74
2023/03/16 12:12:27;;;;;;;;;0.00;0.00;;;;;15.05;49.42;100383.72;5073754;28;46022;-72
2023/03/16 12:15:10;;;;;;;;;2.25;1.50;;;;;15.11;49.61;100374.41;5073295;28;45466;-73
2023/03/16 12:17:36;;;;;;;;;2.00;2.00;;;;;15.20;49.53;100377.97;5073885;28;45740;-73
2023/03/16 12:20:17;;;;;;;;;2.00;2.00;;;;;15.28;49.30;100378.88;5074570;28;46576;-73
2023/03/16 12:22:48;;;;;;;;;1.25;1.00;;;;;15.35;49.26;100365.94;5077567;28;45942;-72
2023/03/16 12:28:35;;;;;;;;;3.00;2.00;;;;;15.44;48.79;100352.69;5077170;28;45602;-74
2023/03/16 12:31:22;;;;;;;;;2.50;1.50;;;;;15.50;48.54;100353.94;5076981;28;46506;-74
2023/03/16 12:34:12;;;;;;;;;2.00;2.00;;;;;15.53;48.62;100346.59;5076645;28;45613;-73
2023/03/16 12:36:49;;;;;;;;;2.25;2.00;;;;;15.58;48.49;100345.31;5076760;28;45652;-73
2023/03/16 12:39:45;;;;;;;;;4.50;2.00;;;;;15.66;48.59;100334.81;5076858;28;45529;-74
2023/03/16 12:42:20;;;;;;;;;2.00;2.00;;;;;15.73;48.49;100325.34;5075497;28;46590;-74
2023/03/16 12:45:00;;;;;;;;;2.75;2.00;;;;;15.78;48.17;100326.56;5076750;28;46184;-73
2023/03/16 12:48:03;;;;;;;;;2.00;2.00;;;;;15.85;48.12;100326.78;5076791;28;45691;-73
2023/03/16 12:50:28;;;;;;;;;1.25;1.00;;;;;15.84;47.65;100304.81;5075398;28;45877;-74
2023/03/16 12:52:53;;;;;;;;;2.50;2.50;;;;;15.95;47.25;100301.13;5076700;28;46013;-74
2023/03/16 12:55:26;;;;;;;;;3.75;2.50;;;;;16.05;47.32;100303.69;5076540;28;47562;-72
2023/03/16 12:58:01;;;;;;;;;1.00;1.00;;;;;16.04;47.74;100289.63;5076830;28;45851;-74
2023/03/16 13:00:41;;;;;;;;;2.50;1.75;;;;;16.18;46.49;100290.94;5058635;28;45597;-73
2023/03/16 13:03:18;;;;;;;;;2.00;1.00;;;;;16.27;46.41;100301.41;5076778;28;45611;-73
2023/03/16 13:05:49;;;;;;;;;1.75;1.25;;;;;16.33;46.46;100278.81;5076666;28;46083;-74
2023/03/16 13:08:17;;;;;;;;;2.00;1.00;;;;;16.38;46.16;100285.31;5076571;28;45645;-74
2023/03/16 13:11:01;;;;;;;;;1.00;1.00;;;;;16.42;45.90;100280.53;5076679;28;45846;-74
2023/03/16 13:13:27;;;;;;;;;1.00;1.00;;;;;16.46;46.14;100276.63;5076232;28;45635;-74
2023/03/16 13:16:08;;;;;;;;;1.00;1.00;;;;;16.46;44.98;100260.75;5076312;28;46939;-73
2023/03/16 13:18:43;;;;;;;;;1.25;1.25;;;;;16.51;45.17;100269.03;5076612;28;45664;-73
2023/03/16 13:21:15;;;;;;;;;4.75;3.00;;;;;16.59;45.39;100269.09;5076967;28;45776;-73